createdAt,value
2017-01-08T00:00:50.861Z,23.2
2017-01-08T00:01:50.540Z,23.13
2017-01-08T00:02:50.349Z,23.18
2017-01-08T00:03:52.015Z,23.12
2017-01-08T00:04:50.075Z,23.1
2017-01-08T00:05:51.090Z,23.15
2017-01-08T00:06:49.695Z,23.1
2017-01-08T00:07:51.148Z,23.1
2017-01-08T00:08:50.158Z,23.17
2017-01-08T00:09:49.997Z,23.08
2017-01-08T00:10:49.477Z,23.12
2017-01-08T00:11:49.861Z,23.06
2017-01-08T00:12:49.905Z,23.13
2017-01-08T00:13:49.848Z,23.09
2017-01-08T00:14:49.607Z,23.12
2017-01-08T00:15:49.786Z,23.08
2017-01-08T00:16:50.257Z,23.18
2017-01-08T00:17:49.297Z,23.18
2017-01-08T00:18:49.611Z,23.12
2017-01-08T00:19:49.685Z,23.08
2017-01-08T00:21:49.316Z,23.1
2017-01-08T00:22:49.470Z,23.18
2017-01-08T00:23:48.520Z,23.15
2017-01-08T00:24:49.003Z,23.1
2017-01-08T00:25:48.691Z,23.08
2017-01-08T00:26:48.887Z,23.03
2017-01-08T00:27:49.015Z,23.09
2017-01-08T00:28:48.298Z,23.09
2017-01-08T00:29:48.815Z,23.06
2017-01-08T00:30:48.600Z,23.08
2017-01-08T00:31:48.626Z,23.09
2017-01-08T00:32:48.032Z,23.06
2017-01-08T00:33:48.685Z,23.05
2017-01-08T00:34:48.000Z,23.09
2017-01-08T00:35:48.025Z,23.05
2017-01-08T00:36:48.341Z,23.06
2017-01-08T00:37:48.786Z,23.06
2017-01-08T00:38:47.781Z,23.06
2017-01-08T00:39:48.197Z,23.06
2017-01-08T00:40:47.682Z,23.03
2017-01-08T00:41:48.084Z,23.06
2017-01-08T00:42:49.193Z,23.06
2017-01-08T00:43:47.995Z,23.05
2017-01-08T00:44:47.421Z,23.08
2017-01-08T00:45:47.311Z,23.02
2017-01-08T00:46:47.624Z,23.05
2017-01-08T00:47:47.165Z,23.06
2017-01-08T00:48:47.059Z,23.02
2017-01-08T00:49:46.994Z,23.02
2017-01-08T00:50:47.349Z,23.05
2017-01-08T00:51:48.575Z,23
2017-01-08T00:52:47.326Z,23.02
2017-01-08T00:53:47.794Z,23.03
2017-01-08T00:54:46.620Z,23.06
2017-01-08T00:55:47.065Z,23.08
2017-01-08T00:56:47.250Z,23.08
2017-01-08T00:57:47.887Z,23.05
2017-01-08T00:58:47.538Z,23.08
2017-01-08T00:59:46.933Z,23.06
2017-01-08T01:01:14.759Z,23.08
2017-01-08T01:02:14.695Z,23.1
2017-01-08T01:03:14.632Z,23.1
2017-01-08T01:04:14.567Z,23.18
2017-01-08T01:05:14.506Z,23.08
2017-01-08T01:06:14.839Z,23.17
2017-01-08T01:07:14.391Z,23.13
2017-01-08T01:08:14.323Z,23.12
2017-01-08T01:09:14.259Z,23.12
2017-01-08T01:10:14.202Z,23.13
2017-01-08T01:11:14.168Z,23.2
2017-01-08T01:12:14.072Z,23.13
2017-01-08T01:13:14.022Z,23.15
2017-01-08T01:14:13.952Z,23.18
2017-01-08T01:15:13.891Z,23.09
2017-01-08T01:16:13.825Z,23.15
2017-01-08T01:17:13.769Z,23.1
2017-01-08T01:18:13.715Z,23.13
2017-01-08T01:19:13.682Z,23.13
2017-01-08T01:20:13.623Z,23.18
2017-01-08T01:21:13.526Z,23.18
2017-01-08T01:22:13.482Z,23.13
2017-01-08T01:23:13.393Z,23.17
2017-01-08T01:24:13.329Z,23.1
2017-01-08T01:25:13.268Z,23.13
2017-01-08T01:26:13.211Z,23.13
2017-01-08T01:27:13.145Z,23.15
2017-01-08T01:28:13.082Z,23.15
2017-01-08T01:29:13.022Z,23.18
2017-01-08T01:30:12.964Z,23.21
2017-01-08T01:31:12.896Z,23.15
2017-01-08T01:32:12.839Z,23.1
2017-01-08T01:33:12.772Z,23.17
2017-01-08T01:34:12.713Z,23.13
2017-01-08T01:35:12.650Z,23.2
2017-01-08T01:36:12.587Z,23.18
2017-01-08T01:37:12.526Z,23.21
2017-01-08T01:38:12.479Z,23.1
2017-01-08T01:39:12.401Z,23.13
2017-01-08T01:40:12.340Z,23.2
2017-01-08T01:41:12.279Z,23.15
2017-01-08T01:42:12.612Z,23.15
2017-01-08T01:43:12.158Z,23.21
2017-01-08T01:44:12.294Z,23.2
2017-01-08T01:45:12.420Z,23.21
2017-01-08T01:46:11.969Z,23.13
2017-01-08T01:47:11.905Z,23.13
2017-01-08T01:48:11.843Z,23.15
2017-01-08T01:49:11.784Z,23.23
2017-01-08T01:50:11.719Z,23.18
2017-01-08T01:51:11.659Z,23.12
2017-01-08T01:52:11.595Z,23.13
2017-01-08T01:53:11.534Z,23.23
2017-01-08T01:54:11.478Z,23.18
2017-01-08T01:55:11.407Z,23.21
2017-01-08T01:56:11.350Z,23.15
2017-01-08T01:57:11.287Z,23.18
2017-01-08T01:58:11.224Z,23.23
2017-01-08T01:59:11.160Z,23.2
2017-01-08T02:00:11.101Z,23.2
2017-01-08T02:01:11.436Z,23.2
2017-01-08T02:02:10.976Z,23.15
2017-01-08T02:03:10.915Z,23.17
2017-01-08T02:04:10.853Z,23.2
2017-01-08T02:05:10.796Z,23.2
2017-01-08T02:06:10.730Z,23.18
2017-01-08T02:07:10.671Z,23.18
2017-01-08T02:08:10.604Z,23.15
2017-01-08T02:09:10.541Z,23.13
2017-01-08T02:10:10.481Z,23.15
2017-01-08T02:11:10.812Z,23.17
2017-01-08T02:12:10.358Z,23.13
2017-01-08T02:13:10.299Z,23.12
2017-01-08T02:14:10.228Z,23.17
2017-01-08T02:15:10.170Z,23.09
2017-01-08T02:16:10.111Z,23.21
2017-01-08T02:17:10.434Z,23.23
2017-01-08T02:18:09.990Z,23.09
2017-01-08T02:19:09.922Z,23.12
2017-01-08T02:20:09.865Z,23.18
2017-01-08T02:21:09.795Z,23.21
2017-01-08T02:22:09.744Z,23.18
2017-01-08T02:23:09.670Z,23.12
2017-01-08T02:24:09.612Z,23.2
2017-01-08T02:25:09.547Z,23.12
2017-01-08T02:26:09.516Z,23.17
2017-01-08T02:27:09.426Z,23.2
2017-01-08T02:28:09.359Z,23.17
2017-01-08T02:29:09.327Z,23.18
2017-01-08T02:30:09.237Z,23.09
2017-01-08T02:31:09.181Z,23.17
2017-01-08T02:32:09.112Z,23.1
2017-01-08T02:33:09.049Z,23.17
2017-01-08T02:34:08.990Z,23.1
2017-01-08T02:35:08.927Z,23.17
2017-01-08T02:36:08.866Z,23.17
2017-01-08T02:37:09.197Z,23.17
2017-01-08T02:38:08.739Z,23.12
2017-01-08T02:39:08.682Z,23.13
2017-01-08T02:40:08.619Z,23.2
2017-01-08T02:41:08.585Z,23.08
2017-01-08T02:42:08.489Z,23.06
2017-01-08T02:43:08.431Z,23.09
2017-01-08T02:44:08.364Z,23.15
2017-01-08T02:45:08.328Z,23.13
2017-01-08T02:46:08.245Z,23.15
2017-01-08T02:47:08.177Z,23.1
2017-01-08T02:48:08.120Z,23.17
2017-01-08T02:49:08.055Z,23.09
2017-01-08T02:50:07.991Z,23.1
2017-01-08T02:51:07.930Z,23.06
2017-01-08T02:52:07.872Z,23.17
2017-01-08T02:53:07.807Z,23.1
2017-01-08T02:54:07.745Z,23.08
2017-01-08T02:55:07.681Z,23.12
2017-01-08T02:56:07.621Z,23.06
2017-01-08T02:57:07.553Z,23.15
2017-01-08T02:58:07.498Z,23.17
2017-01-08T02:59:07.468Z,23.06
2017-01-08T03:00:07.376Z,23.05
2017-01-08T03:01:07.309Z,23.08
2017-01-08T03:02:07.249Z,23.06
2017-01-08T03:03:07.183Z,23.15
2017-01-08T03:04:07.122Z,23.06
2017-01-08T03:05:07.059Z,23.05
2017-01-08T03:06:06.996Z,23.08
2017-01-08T03:07:06.931Z,23.05
2017-01-08T03:08:06.872Z,23.02
2017-01-08T03:09:06.806Z,23.05
2017-01-08T03:10:06.745Z,23.05
2017-01-08T03:11:06.683Z,23.09
2017-01-08T03:12:06.618Z,23.05
2017-01-08T03:13:06.562Z,23.08
2017-01-08T03:14:06.498Z,23.1
2017-01-08T03:15:06.436Z,23.08
2017-01-08T03:16:06.370Z,23.06
2017-01-08T03:17:06.310Z,23.05
2017-01-08T03:18:06.253Z,23.03
2017-01-08T03:19:06.181Z,23.05
2017-01-08T03:20:06.127Z,23.06
2017-01-08T03:21:06.060Z,23.03
2017-01-08T03:22:05.994Z,23.08
2017-01-08T03:23:05.932Z,23.08
2017-01-08T03:24:05.872Z,23.03
2017-01-08T03:25:05.808Z,23.09
2017-01-08T03:26:05.747Z,23.15
2017-01-08T03:27:05.685Z,23.13
2017-01-08T03:28:05.625Z,23.09
2017-01-08T03:29:05.568Z,23.08
2017-01-08T03:30:05.502Z,23.05
2017-01-08T03:31:05.433Z,23.09
2017-01-08T03:32:05.374Z,23.13
2017-01-08T03:33:05.310Z,23.13
2017-01-08T03:34:05.640Z,23.18
2017-01-08T03:35:05.188Z,23.09
2017-01-08T03:36:05.129Z,23.12
2017-01-08T03:37:05.065Z,23.08
2017-01-08T03:38:05.001Z,23.15
2017-01-08T03:39:04.941Z,23.13
2017-01-08T03:40:04.882Z,23.17
2017-01-08T03:41:05.209Z,23.12
2017-01-08T03:42:04.752Z,23.15
2017-01-08T03:43:04.693Z,23.18
2017-01-08T03:44:04.630Z,23.1
2017-01-08T03:45:04.570Z,23.1
2017-01-08T03:46:04.503Z,23.13
2017-01-08T03:47:04.444Z,23.15
2017-01-08T03:48:04.380Z,23.13
2017-01-08T03:49:04.321Z,23.17
2017-01-08T03:50:04.261Z,23.13
2017-01-08T03:51:04.586Z,23.18
2017-01-08T03:52:04.133Z,23.2
2017-01-08T03:53:04.072Z,23.17
2017-01-08T03:54:04.015Z,23.2
2017-01-08T03:55:03.956Z,23.2
2017-01-08T03:56:03.886Z,23.15
2017-01-08T03:57:03.825Z,23.13
2017-01-08T03:58:03.763Z,23.18
2017-01-08T03:59:03.700Z,23.18
2017-01-08T04:00:03.640Z,23.17
2017-01-08T04:01:03.575Z,23.13
2017-01-08T04:02:03.517Z,23.24
2017-01-08T04:03:03.456Z,23.17
2017-01-08T04:04:03.388Z,23.2
2017-01-08T04:05:03.338Z,23.25
2017-01-08T04:06:03.265Z,23.21
2017-01-08T04:07:03.216Z,23.21
2017-01-08T04:08:03.141Z,23.23
2017-01-08T04:09:03.077Z,23.25
2017-01-08T04:10:03.019Z,23.18
2017-01-08T04:11:02.958Z,23.23
2017-01-08T04:12:03.110Z,23.18
2017-01-08T04:13:02.833Z,23.24
2017-01-08T04:14:02.772Z,23.23
2017-01-08T04:15:02.706Z,23.18
2017-01-08T04:16:02.649Z,23.17
2017-01-08T04:17:02.581Z,23.23
2017-01-08T04:18:02.518Z,23.23
2017-01-08T04:19:02.457Z,23.23
2017-01-08T04:20:02.400Z,23.25
2017-01-08T04:21:02.336Z,23.15
2017-01-08T04:22:02.278Z,23.2
2017-01-08T04:23:02.211Z,23.24
2017-01-08T04:24:02.151Z,23.18
2017-01-08T04:25:02.089Z,23.25
2017-01-08T04:26:02.026Z,23.21
2017-01-08T04:27:01.965Z,23.25
2017-01-08T04:28:01.914Z,23.23
2017-01-08T04:29:01.842Z,23.2
2017-01-08T04:30:01.778Z,23.18
2017-01-08T04:31:01.717Z,23.23
2017-01-08T04:32:02.051Z,23.23
2017-01-08T04:33:01.595Z,23.24
2017-01-08T04:34:01.529Z,23.18
2017-01-08T04:35:01.473Z,23.15
2017-01-08T04:36:01.407Z,23.25
2017-01-08T04:37:01.345Z,23.15
2017-01-08T04:38:01.283Z,23.17
2017-01-08T04:39:01.224Z,23.2
2017-01-08T04:40:01.192Z,23.15
2017-01-08T04:41:01.099Z,23.21
2017-01-08T04:42:01.037Z,23.15
2017-01-08T04:43:00.973Z,23.17
2017-01-08T04:44:00.909Z,23.15
2017-01-08T04:45:01.054Z,23.2
2017-01-08T04:46:00.791Z,23.2
2017-01-08T04:47:00.727Z,23.23
2017-01-08T04:48:00.663Z,23.2
2017-01-08T04:49:00.604Z,23.1
2017-01-08T04:50:00.540Z,23.2
2017-01-08T04:51:00.478Z,23.17
2017-01-08T04:52:00.413Z,23.17
2017-01-08T04:53:00.357Z,23.23
2017-01-08T04:54:00.294Z,23.2
2017-01-08T04:55:00.621Z,23.23
2017-01-08T04:56:00.169Z,23.13
2017-01-08T04:57:00.111Z,23.15
2017-01-08T04:58:00.055Z,23.24
2017-01-08T04:58:59.985Z,23.15
2017-01-08T04:59:59.921Z,23.13
2017-01-08T05:00:59.860Z,23.13
2017-01-08T05:01:59.794Z,23.15
2017-01-08T05:02:59.734Z,23.23
2017-01-08T05:03:59.670Z,23.12
2017-01-08T05:04:59.608Z,23.18
2017-01-08T05:05:59.546Z,23.13
2017-01-08T05:06:59.488Z,23.2
2017-01-08T05:07:59.423Z,23.15
2017-01-08T05:08:59.363Z,23.15
2017-01-08T05:09:59.298Z,23.17
2017-01-08T05:10:59.237Z,23.18
2017-01-08T05:11:59.175Z,23.13
2017-01-08T05:12:59.110Z,23.13
2017-01-08T05:13:59.049Z,23.12
2017-01-08T05:14:58.986Z,23.18
2017-01-08T05:15:58.927Z,23.17
2017-01-08T05:16:58.864Z,23.18
2017-01-08T05:17:58.801Z,23.12
2017-01-08T05:18:58.738Z,23.13
2017-01-08T05:19:58.680Z,23.15
2017-01-08T05:20:58.613Z,23.18
2017-01-08T05:21:58.565Z,23.1
2017-01-08T05:22:58.490Z,23.13
2017-01-08T05:23:58.429Z,23.1
2017-01-08T05:24:58.371Z,23.13
2017-01-08T05:25:58.693Z,23.15
2017-01-08T05:26:58.242Z,23.13
2017-01-08T05:27:58.184Z,23.12
2017-01-08T05:28:58.119Z,23.08
2017-01-08T05:29:58.055Z,23.2
2017-01-08T05:30:57.992Z,23.1
2017-01-08T05:31:57.931Z,23.12
2017-01-08T05:32:57.870Z,23.15
2017-01-08T05:33:57.809Z,23.08
2017-01-08T05:34:57.740Z,23.15
2017-01-08T05:35:57.682Z,23.09
2017-01-08T05:36:58.013Z,23.17
2017-01-08T05:37:57.556Z,23.17
2017-01-08T05:38:57.500Z,23.15
2017-01-08T05:39:57.430Z,23.15
2017-01-08T05:40:57.370Z,23.05
2017-01-08T05:41:57.311Z,23.18
2017-01-08T05:42:57.244Z,23.08
2017-01-08T05:43:58.381Z,23.05
2017-01-08T05:44:57.126Z,23.08
2017-01-08T05:45:57.063Z,23.09
2017-01-08T05:46:56.995Z,23.08
2017-01-08T05:47:56.936Z,23.12
2017-01-08T05:48:56.874Z,23.09
2017-01-08T05:49:56.812Z,23.06
2017-01-08T05:50:56.746Z,23.09
2017-01-08T05:51:56.687Z,23.03
2017-01-08T05:52:56.628Z,23.08
2017-01-08T05:53:57.764Z,23.08
2017-01-08T05:54:56.501Z,23.08
2017-01-08T05:55:56.437Z,23.06
2017-01-08T05:56:56.373Z,23.06
2017-01-08T05:57:56.318Z,23.05
2017-01-08T05:58:56.252Z,23.08
2017-01-08T05:59:56.187Z,23.09
2017-01-08T06:00:56.131Z,23.05
2017-01-08T06:01:56.066Z,23.03
2017-01-08T06:02:56.004Z,23.12
2017-01-08T06:03:55.941Z,23.08
2017-01-08T06:04:55.878Z,23.05
2017-01-08T06:05:55.812Z,23.09
2017-01-08T06:06:55.753Z,23.08
2017-01-08T06:07:55.691Z,23.09
2017-01-08T06:08:55.632Z,23.08
2017-01-08T06:09:55.575Z,23.09
2017-01-08T06:10:55.508Z,23.08
2017-01-08T06:11:55.441Z,23.09
2017-01-08T06:12:55.383Z,23.08
2017-01-08T06:13:55.323Z,23.18
2017-01-08T06:14:55.258Z,23.08
2017-01-08T06:15:55.200Z,23.1
2017-01-08T06:16:55.133Z,23.1
2017-01-08T06:17:55.073Z,23.09
2017-01-08T06:18:55.007Z,23.12
2017-01-08T06:19:54.956Z,23.15
2017-01-08T06:20:54.890Z,23.1
2017-01-08T06:21:54.827Z,23.1
2017-01-08T06:22:54.762Z,23.15
2017-01-08T06:23:54.699Z,23.15
2017-01-08T06:24:54.638Z,23.17
2017-01-08T06:25:54.577Z,23.1
2017-01-08T06:26:54.514Z,23.13
2017-01-08T06:27:54.463Z,23.12
2017-01-08T06:28:54.391Z,23.18
2017-01-08T06:29:54.333Z,23.18
2017-01-08T06:30:54.275Z,23.17
2017-01-08T06:31:54.206Z,23.21
2017-01-08T06:32:54.173Z,23.2
2017-01-08T06:33:54.084Z,23.2
2017-01-08T06:34:54.020Z,23.18
2017-01-08T06:35:53.960Z,23.18
2017-01-08T06:36:53.899Z,23.15
2017-01-08T06:37:53.836Z,23.2
2017-01-08T06:38:53.776Z,23.21
2017-01-08T06:39:53.713Z,23.17
2017-01-08T06:40:53.651Z,23.2
2017-01-08T06:41:53.591Z,23.23
2017-01-08T06:42:53.528Z,23.23
2017-01-08T06:43:53.465Z,23.25
2017-01-08T06:44:53.403Z,23.2
2017-01-08T06:45:53.340Z,23.18
2017-01-08T06:46:53.283Z,23.23
2017-01-08T06:47:53.218Z,23.21
2017-01-08T06:48:53.156Z,23.21
2017-01-08T06:49:53.091Z,23.23
2017-01-08T06:50:53.034Z,23.23
2017-01-08T06:51:52.980Z,23.21
2017-01-08T06:52:52.910Z,23.2
2017-01-08T06:53:52.848Z,23.23
2017-01-08T06:54:52.783Z,23.21
2017-01-08T06:55:52.725Z,23.24
2017-01-08T06:56:52.660Z,23.23
2017-01-08T06:57:52.603Z,23.21
2017-01-08T06:58:52.541Z,23.21
2017-01-08T06:59:52.475Z,23.24
2017-01-08T07:00:52.416Z,23.17
2017-01-08T07:01:52.354Z,23.21
2017-01-08T07:02:52.289Z,23.21
2017-01-08T07:03:52.619Z,23.25
2017-01-08T07:04:52.167Z,23.24
2017-01-08T07:05:52.099Z,23.23
2017-01-08T07:06:52.042Z,23.23
2017-01-08T07:07:51.989Z,23.18
2017-01-08T07:08:51.920Z,23.23
2017-01-08T07:09:51.855Z,23.21
2017-01-08T07:10:51.791Z,23.24
2017-01-08T07:11:51.735Z,23.23
2017-01-08T07:12:51.671Z,23.21
2017-01-08T07:13:51.611Z,23.21
2017-01-08T07:14:51.938Z,23.21
2017-01-08T07:15:51.489Z,23.23
2017-01-08T07:16:51.423Z,23.23
2017-01-08T07:17:51.363Z,23.21
2017-01-08T07:18:51.297Z,23.28
2017-01-08T07:19:51.236Z,23.17
2017-01-08T07:20:51.174Z,23.27
2017-01-08T07:21:51.111Z,23.18
2017-01-08T07:22:51.059Z,23.21
2017-01-08T07:23:50.990Z,23.27
2017-01-08T07:24:50.951Z,23.21
2017-01-08T07:25:50.868Z,23.27
2017-01-08T07:26:50.803Z,23.23
2017-01-08T07:27:50.741Z,23.25
2017-01-08T07:28:50.678Z,23.15
2017-01-08T07:29:50.617Z,23.2
2017-01-08T07:30:50.584Z,23.2
2017-01-08T07:31:50.493Z,23.2
2017-01-08T07:32:50.429Z,23.23
2017-01-08T07:33:50.368Z,23.17
2017-01-08T07:34:50.311Z,23.24
2017-01-08T07:35:50.243Z,23.25
2017-01-08T07:36:50.182Z,23.24
2017-01-08T07:37:50.120Z,23.25
2017-01-08T07:38:50.059Z,23.2
2017-01-08T07:39:50.388Z,23.2
2017-01-08T07:40:49.938Z,23.2
2017-01-08T07:41:49.878Z,23.13
2017-01-08T07:42:49.816Z,23.23
2017-01-08T07:43:49.748Z,23.23
2017-01-08T07:44:49.684Z,23.2
2017-01-08T07:45:50.019Z,23.21
2017-01-08T07:46:49.562Z,23.13
2017-01-08T07:47:49.501Z,23.15
2017-01-08T07:48:49.461Z,23.12
2017-01-08T07:49:49.372Z,23.15
2017-01-08T07:50:49.314Z,23.12
2017-01-08T07:51:49.250Z,23.15
2017-01-08T07:52:49.189Z,23.2
2017-01-08T07:53:49.126Z,23.24
2017-01-08T07:54:49.063Z,23.18
2017-01-08T07:55:49.001Z,23.15
2017-01-08T07:56:48.938Z,23.12
2017-01-08T07:57:48.877Z,23.1
2017-01-08T07:58:48.815Z,23.12
2017-01-08T07:59:48.759Z,23.12
2017-01-08T08:00:48.729Z,23.13
2017-01-08T08:01:48.629Z,23.15
2017-01-08T08:02:48.566Z,23.15
2017-01-08T08:03:48.502Z,23.18
2017-01-08T08:04:48.443Z,23.15
2017-01-08T08:05:48.384Z,23.17
2017-01-08T08:06:48.316Z,23.1
2017-01-08T08:07:48.260Z,23.15
2017-01-08T08:08:48.196Z,23.17
2017-01-08T08:09:48.130Z,23.17
2017-01-08T08:10:48.077Z,23.17
2017-01-08T08:11:48.009Z,23.13
2017-01-08T08:12:47.943Z,23.1
2017-01-08T08:13:47.881Z,23.12
2017-01-08T08:14:47.842Z,23.13
2017-01-08T08:15:47.761Z,23.13
2017-01-08T08:16:47.695Z,23.13
2017-01-08T08:17:48.029Z,23.1
2017-01-08T08:18:47.570Z,23.09
2017-01-08T08:19:47.512Z,23.1
2017-01-08T08:20:47.449Z,23.12
2017-01-08T08:21:47.384Z,23.09
2017-01-08T08:22:47.318Z,23.06
2017-01-08T08:23:47.267Z,23.09
2017-01-08T08:24:47.198Z,23.09
2017-01-08T08:25:47.138Z,23.17
2017-01-08T08:26:47.073Z,23.12
2017-01-08T08:27:47.008Z,23.08
2017-01-08T08:28:46.956Z,23.09
2017-01-08T08:29:46.885Z,23.08
2017-01-08T08:30:46.819Z,23.15
2017-01-08T08:31:46.765Z,23.08
2017-01-08T08:32:46.698Z,23.1
2017-01-08T08:33:46.633Z,23.09
2017-01-08T08:34:46.574Z,23.1
2017-01-08T08:35:46.512Z,23.1
2017-01-08T08:36:46.447Z,23.1
2017-01-08T08:37:46.384Z,23.08
2017-01-08T08:38:46.326Z,23.12
2017-01-08T08:39:46.264Z,23.09
2017-01-08T08:40:46.198Z,23.09
2017-01-08T08:41:46.135Z,23.1
2017-01-08T08:42:46.072Z,23.09
2017-01-08T08:43:46.015Z,23.1
2017-01-08T08:44:45.952Z,23.13
2017-01-08T08:45:45.888Z,23.1
2017-01-08T08:46:45.825Z,23.05
2017-01-08T08:47:45.759Z,23.1
2017-01-08T08:48:45.702Z,23.06
2017-01-08T08:49:45.642Z,23.03
2017-01-08T08:50:45.577Z,23.08
2017-01-08T08:51:45.515Z,23.08
2017-01-08T08:52:45.454Z,23.13
2017-01-08T08:53:45.779Z,23.12
2017-01-08T08:54:45.333Z,23.1
2017-01-08T08:55:45.267Z,23.08
2017-01-08T08:56:45.204Z,23.17
2017-01-08T08:57:45.149Z,23.15
2017-01-08T08:58:45.075Z,23.09
2017-01-08T08:59:45.017Z,23.12
2017-01-08T09:00:44.955Z,23.12
2017-01-08T09:01:45.290Z,23.08
2017-01-08T09:02:44.830Z,23.13
2017-01-08T09:03:44.774Z,23.17
2017-01-08T09:04:44.705Z,23.1
2017-01-08T09:05:44.646Z,23.17
2017-01-08T09:06:44.585Z,23.13
2017-01-08T09:07:44.520Z,23.13
2017-01-08T09:08:44.853Z,23.12
2017-01-08T09:09:44.397Z,23.13
2017-01-08T09:10:44.338Z,23.12
2017-01-08T09:11:44.272Z,23.13
2017-01-08T09:12:44.214Z,23.1
2017-01-08T09:13:44.148Z,23.18
2017-01-08T09:14:44.088Z,23.13
2017-01-08T09:15:44.032Z,23.2
2017-01-08T09:16:44.361Z,23.13
2017-01-08T09:17:43.904Z,23.2
2017-01-08T09:18:43.842Z,23.18
2017-01-08T09:19:43.781Z,23.2
2017-01-08T09:20:43.718Z,23.2
2017-01-08T09:21:43.653Z,23.13
2017-01-08T09:22:43.594Z,23.23
2017-01-08T09:23:43.536Z,23.23
2017-01-08T09:24:43.480Z,23.21
2017-01-08T09:25:43.405Z,23.15
2017-01-08T09:26:43.347Z,23.24
2017-01-08T09:27:43.280Z,23.25
2017-01-08T09:28:43.222Z,23.21
2017-01-08T09:29:43.159Z,23.21
2017-01-08T09:30:43.102Z,23.24
2017-01-08T09:31:43.033Z,23.23
2017-01-08T09:32:42.981Z,23.25
2017-01-08T09:33:42.911Z,23.25
2017-01-08T09:34:42.847Z,23.28
2017-01-08T09:35:42.793Z,23.23
2017-01-08T09:36:42.730Z,23.21
2017-01-08T09:37:42.664Z,23.21
2017-01-08T09:38:42.599Z,23.25
2017-01-08T09:39:42.545Z,23.23
2017-01-08T09:40:42.479Z,23.15
2017-01-08T09:41:42.415Z,23.21
2017-01-08T09:42:42.359Z,23.23
2017-01-08T09:43:42.292Z,23.21
2017-01-08T09:44:42.228Z,23.2
2017-01-08T09:45:42.168Z,23.18
2017-01-08T09:46:42.107Z,23.24
2017-01-08T09:47:42.067Z,23.23
2017-01-08T09:48:41.987Z,23.2
2017-01-08T09:49:41.920Z,23.18
2017-01-08T09:50:41.863Z,23.21
2017-01-08T09:51:41.803Z,23.24
2017-01-08T09:52:41.735Z,23.18
2017-01-08T09:53:41.672Z,23.21
2017-01-08T09:54:41.609Z,23.25
2017-01-08T09:55:41.559Z,23.2
2017-01-08T09:56:41.497Z,23.24
2017-01-08T09:57:41.427Z,23.17
2017-01-08T09:58:41.367Z,23.23
2017-01-08T09:59:41.300Z,23.24
2017-01-08T10:00:41.243Z,23.24
2017-01-08T10:01:41.182Z,23.2
2017-01-08T10:02:41.117Z,23.21
2017-01-08T10:03:41.056Z,23.28
2017-01-08T10:04:40.992Z,23.23
2017-01-08T10:05:40.931Z,23.28
2017-01-08T10:06:40.869Z,23.17
2017-01-08T10:07:40.808Z,23.23
2017-01-08T10:08:40.742Z,23.23
2017-01-08T10:09:40.683Z,23.23
2017-01-08T10:10:40.620Z,23.17
2017-01-08T10:11:40.556Z,23.23
2017-01-08T10:12:40.491Z,23.23
2017-01-08T10:13:40.433Z,23.23
2017-01-08T10:14:40.370Z,23.27
2017-01-08T10:15:40.316Z,23.2
2017-01-08T10:16:40.244Z,23.25
2017-01-08T10:17:40.189Z,23.21
2017-01-08T10:18:40.124Z,23.2
2017-01-08T10:19:40.448Z,23.17
2017-01-08T10:20:40.000Z,23.2
2017-01-08T10:21:39.939Z,23.25
2017-01-08T10:22:39.876Z,23.24
2017-01-08T10:23:39.813Z,23.18
2017-01-08T10:24:39.764Z,23.17
2017-01-08T10:25:39.686Z,23.2
2017-01-08T10:26:39.627Z,23.2
2017-01-08T10:27:39.562Z,23.17
2017-01-08T10:28:39.509Z,23.17
2017-01-08T10:29:39.442Z,23.17
2017-01-08T10:30:39.379Z,23.24
2017-01-08T10:31:40.105Z,23.13
2017-01-08T10:32:39.257Z,23.18
2017-01-08T10:33:39.191Z,23.21
2017-01-08T10:34:39.128Z,23.24
2017-01-08T10:35:39.072Z,23.15
2017-01-08T10:36:39.006Z,23.2
2017-01-08T10:37:38.942Z,23.13
2017-01-08T10:38:38.881Z,23.23
2017-01-08T10:39:38.822Z,23.15
2017-01-08T10:40:38.787Z,23.18
2017-01-08T10:41:38.699Z,23.15
2017-01-08T10:42:38.632Z,23.18
2017-01-08T10:43:38.576Z,23.23
2017-01-08T10:44:38.507Z,23.15
2017-01-08T10:45:38.444Z,23.2
2017-01-08T10:46:38.382Z,23.21
2017-01-08T10:47:38.330Z,23.18
2017-01-08T10:48:38.258Z,23.2
2017-01-08T10:49:38.210Z,23.2
2017-01-08T10:50:38.138Z,23.15
2017-01-08T10:51:38.070Z,23.21
2017-01-08T10:52:38.011Z,23.18
2017-01-08T10:53:37.948Z,23.17
2017-01-08T10:54:38.277Z,23.2
2017-01-08T10:55:37.827Z,23.12
2017-01-08T10:56:37.760Z,23.17
2017-01-08T10:57:37.698Z,23.18
2017-01-08T10:58:38.030Z,23.13
2017-01-08T10:59:37.966Z,23.1
2017-01-08T11:01:37.451Z,23.1
2017-01-08T11:02:37.395Z,23.13
2017-01-08T11:03:37.329Z,23.13
2017-01-08T11:04:37.269Z,23.13
2017-01-08T11:05:37.210Z,23.13
2017-01-08T11:06:37.143Z,23.08
2017-01-08T11:07:37.077Z,23.06
2017-01-08T11:08:37.014Z,23.12
2017-01-08T11:09:36.957Z,23.12
2017-01-08T11:10:36.894Z,23.12
2017-01-08T11:11:36.829Z,23.12
2017-01-08T11:12:36.774Z,23.09
2017-01-08T11:13:36.704Z,23.08
2017-01-08T11:14:36.648Z,23.18
2017-01-08T11:16:36.527Z,23.15
2017-01-08T11:17:36.457Z,23.13
2017-01-08T11:18:36.393Z,23.06
2017-01-08T11:19:36.334Z,23.09
2017-01-08T11:20:36.272Z,23.13
2017-01-08T11:21:36.205Z,23.09
2017-01-08T11:22:36.146Z,23.08
2017-01-08T11:23:36.082Z,23.08
2017-01-08T11:24:36.021Z,23.12
2017-01-08T11:25:35.960Z,23.06
2017-01-08T11:27:36.228Z,23.06
2017-01-08T11:28:35.771Z,23.06
2017-01-08T11:29:35.710Z,23.09
2017-01-08T11:30:35.647Z,23.06
2017-01-08T11:31:35.788Z,23.08
2017-01-08T11:32:35.522Z,23.1
2017-01-08T11:33:35.652Z,23.1
2017-01-08T11:34:35.399Z,23.08
2017-01-08T11:35:35.335Z,23.1
2017-01-08T11:36:35.274Z,23.05
2017-01-08T11:37:35.213Z,23.05
2017-01-08T11:38:35.154Z,23.09
2017-01-08T11:39:35.092Z,23.08
2017-01-08T11:40:35.028Z,23.13
2017-01-08T11:41:34.963Z,23.18
2017-01-08T11:42:34.908Z,23.17
2017-01-08T11:43:34.838Z,23.2
2017-01-08T11:44:34.777Z,23.09
2017-01-08T11:45:34.714Z,23.09
2017-01-08T11:46:34.655Z,23.1
2017-01-08T11:47:34.593Z,23.12
2017-01-08T11:48:34.530Z,23.13
2017-01-08T11:49:34.476Z,23.09
2017-01-08T11:50:34.406Z,23.13
2017-01-08T11:51:34.343Z,23.09
2017-01-08T11:52:34.285Z,23.1
2017-01-08T11:53:34.222Z,23.12
2017-01-08T11:54:34.176Z,23.12
2017-01-08T11:55:34.095Z,23.08
2017-01-08T11:56:34.033Z,23.18
2017-01-08T11:57:33.974Z,23.1
2017-01-08T11:58:33.914Z,23.13
2017-01-08T11:59:34.239Z,23.12
2017-01-08T12:00:33.789Z,23.13
2017-01-08T12:01:33.725Z,23.13
2017-01-08T12:02:34.054Z,23.12
2017-01-08T12:03:33.601Z,23.15
2017-01-08T12:04:33.541Z,23.2
2017-01-08T12:05:33.482Z,23.2
2017-01-08T12:06:33.416Z,23.2
2017-01-08T12:07:33.354Z,23.2
2017-01-08T12:08:33.295Z,23.21
2017-01-08T12:09:33.231Z,23.2
2017-01-08T12:10:33.168Z,23.17
2017-01-08T12:11:33.107Z,23.2
2017-01-08T12:12:33.044Z,23.18
2017-01-08T12:13:32.982Z,23.18
2017-01-08T12:14:33.313Z,23.21
2017-01-08T12:15:33.253Z,23.23
2017-01-08T12:16:32.798Z,23.21
2017-01-08T12:17:32.736Z,23.2
2017-01-08T12:18:32.676Z,23.21
2017-01-08T12:19:32.613Z,23.17
2017-01-08T12:20:32.553Z,23.21
2017-01-08T12:21:32.490Z,23.18
2017-01-08T12:22:32.424Z,23.21
2017-01-08T12:23:32.365Z,23.21
2017-01-08T12:24:32.304Z,23.21
2017-01-08T12:25:32.250Z,23.21
2017-01-08T12:26:32.182Z,23.23
2017-01-08T12:27:32.115Z,23.2
2017-01-08T12:28:32.054Z,23.18
2017-01-08T12:29:31.994Z,23.23
2017-01-08T12:30:31.929Z,23.18
2017-01-08T12:31:31.873Z,23.23
2017-01-08T12:32:31.810Z,23.21
2017-01-08T12:33:31.746Z,23.18
2017-01-08T12:34:31.686Z,23.2
2017-01-08T12:35:31.625Z,23.21
2017-01-08T12:36:31.561Z,23.18
2017-01-08T12:37:31.886Z,23.25
2017-01-08T12:38:31.438Z,23.21
2017-01-08T12:39:31.376Z,23.2
2017-01-08T12:40:31.312Z,23.23
2017-01-08T12:41:31.249Z,23.21
2017-01-08T12:42:31.187Z,23.23
2017-01-08T12:43:31.127Z,23.23
2017-01-08T12:44:31.063Z,23.23
2017-01-08T12:45:31.010Z,23.21
2017-01-08T12:46:30.941Z,23.21
2017-01-08T12:47:30.881Z,23.21
2017-01-08T12:48:30.817Z,23.13
2017-01-08T12:49:30.755Z,23.24
2017-01-08T12:50:30.693Z,23.23
2017-01-08T12:51:30.627Z,23.23
2017-01-08T12:52:30.567Z,23.28
2017-01-08T12:53:30.509Z,23.23
2017-01-08T12:54:30.445Z,23.25
2017-01-08T12:55:30.392Z,23.21
2017-01-08T12:56:30.320Z,23.28
2017-01-08T12:57:30.288Z,23.21
2017-01-08T12:58:30.197Z,23.23
2017-01-08T12:59:30.136Z,23.23
2017-01-08T13:00:30.072Z,23.17